Time;durP1;ratioP1;P1;durP2;ratioP2;P2;SDS_P1;SDS_P2;PMS_P1;PMS_P2;Temp;Humidity;BMP_temperature;BMP_pressure;BME280_temperature;BME280_humidity;BME280_pressure;Samples;Min_cycle;Max_cycle;Signal;HPM_P1;HPM_P2
2022/01/30 00:02:11;;;;;;;1.35;1.00;;;8.00;91.90;;;;;;6276624;28;20057;-81
2022/01/30 00:05:14;;;;;;;2.22;1.33;;;8.10;91.90;;;;;;6269539;28;20422;-82
2022/01/30 00:08:16;;;;;;;1.25;0.85;;;8.10;91.80;;;;;;6273854;28;20055;-82
2022/01/30 00:11:23;;;;;;;2.00;1.30;;;8.10;91.70;;;;;;6275471;28;20183;-82
2022/01/30 00:14:28;;;;;;;1.02;0.70;;;8.10;91.70;;;;;;6275671;28;20064;-83
2022/01/30 00:17:36;;;;;;;1.10;0.80;;;8.10;91.60;;;;;;6276526;28;20053;-82
2022/01/30 00:20:43;;;;;;;1.88;0.90;;;8.10;91.70;;;;;;6276200;28;20187;-82
2022/01/30 00:23:49;;;;;;;2.50;1.17;;;8.30;91.70;;;;;;6275053;28;20053;-81
2022/01/30 00:26:51;;;;;;;3.78;1.35;;;8.10;91.70;;;;;;6276487;28;20045;-82
2022/01/30 00:29:53;;;;;;;4.00;1.38;;;8.10;91.80;;;;;;6274780;28;20063;-83
2022/01/30 00:32:54;;;;;;;2.25;1.00;;;8.00;91.70;;;;;;6276327;28;20055;-82
2022/01/30 00:35:58;;;;;;;1.92;1.13;;;8.10;91.90;;;;;;6276286;28;20052;-82
2022/01/30 00:39:00;;;;;;;2.28;1.10;;;8.10;91.90;;;;;;6275327;28;20075;-82
2022/01/30 00:42:01;;;;;;;2.42;1.25;;;8.10;92.00;;;;;;6277865;28;20566;-81
2022/01/30 00:45:04;;;;;;;2.90;1.33;;;8.10;91.70;;;;;;6278349;28;20494;-83
2022/01/30 00:48:07;;;;;;;3.10;0.82;;;8.20;91.70;;;;;;6284100;28;20410;-83
2022/01/30 00:51:10;;;;;;;2.13;0.90;;;8.20;91.70;;;;;;6283031;28;20079;-83
2022/01/30 00:54:11;;;;;;;1.60;0.98;;;8.20;91.50;;;;;;6286656;28;20117;-84
2022/01/30 00:57:13;;;;;;;2.53;1.33;;;8.20;91.60;;;;;;6281875;28;20056;-83
2022/01/30 01:00:16;;;;;;;3.05;1.58;;;8.10;91.40;;;;;;6282975;28;20055;-82
2022/01/30 01:03:18;;;;;;;2.42;1.42;;;8.10;91.40;;;;;;6311590;23;20805;-81
2022/01/30 01:06:21;;;;;;;2.47;1.00;;;8.10;91.50;;;;;;6303246;28;20102;-80
2022/01/30 01:09:30;;;;;;;1.98;1.20;;;8.20;91.50;;;;;;6304031;28;20048;-79
2022/01/30 01:13:01;;;;;;;2.90;1.08;;;8.20;91.50;;;;;;6302848;28;20429;-80
2022/01/30 01:26:02;;;;;;;1.55;0.95;;;8.00;92.00;;;;;;6303243;28;20053;-80
2022/01/30 01:29:04;;;;;;;3.90;1.20;;;8.00;92.40;;;;;;6302612;28;20155;-78
2022/01/30 01:32:07;;;;;;;6.25;1.55;;;8.00;92.30;;;;;;6303123;28;20047;-78
2022/01/30 01:35:09;;;;;;;2.25;1.13;;;7.90;92.40;;;;;;6302294;28;20124;-80
2022/01/30 01:38:14;;;;;;;1.80;1.25;;;7.90;92.50;;;;;;6303301;28;20057;-79
2022/01/30 01:41:19;;;;;;;1.80;1.02;;;7.80;92.60;;;;;;6302274;28;20055;-80
2022/01/30 01:44:29;;;;;;;2.72;1.05;;;7.80;92.70;;;;;;6303001;28;20047;-78
2022/01/30 01:47:33;;;;;;;2.03;1.30;;;7.80;92.70;;;;;;6302516;28;20048;-79
2022/01/30 01:50:39;;;;;;;2.05;1.30;;;7.70;92.80;;;;;;6303216;28;20497;-79
2022/01/30 01:53:42;;;;;;;2.50;1.58;;;7.70;92.90;;;;;;6302858;28;20063;-79
2022/01/30 01:56:44;;;;;;;2.28;1.25;;;7.80;92.90;;;;;;6299537;28;20123;-80
2022/01/30 01:59:46;;;;;;;1.90;1.15;;;7.80;92.80;;;;;;6302501;28;20054;-80
2022/01/30 02:02:48;;;;;;;3.00;1.20;;;7.90;93.00;;;;;;6302139;28;20036;-79
2022/01/30 02:05:54;;;;;;;2.90;1.27;;;7.90;92.90;;;;;;6299076;28;20517;-79
2022/01/30 02:09:00;;;;;;;1.58;1.05;;;7.90;92.90;;;;;;6298460;28;20040;-78
2022/01/30 02:12:03;;;;;;;1.67;0.93;;;7.90;92.90;;;;;;6298730;28;20048;-77
2022/01/30 02:15:19;;;;;;;4.45;0.73;;;7.90;93.00;;;;;;6298618;28;20056;-79
2022/01/30 02:25:27;;;;;;;2.13;1.40;;;7.80;93.60;;;;;;6298397;28;20040;-79
2022/01/30 02:28:32;;;;;;;1.10;0.90;;;7.70;93.40;;;;;;6299086;28;20072;-78
2022/01/30 02:31:37;;;;;;;2.22;0.77;;;7.70;93.50;;;;;;6301221;28;20108;-79
2022/01/30 02:34:39;;;;;;;1.88;0.90;;;7.60;93.60;;;;;;6303470;28;20122;-79
2022/01/30 02:37:41;;;;;;;1.73;1.27;;;7.60;93.80;;;;;;6303099;28;20048;-77
2022/01/30 02:40:47;;;;;;;1.45;0.90;;;7.60;93.90;;;;;;6301995;28;20131;-80
2022/01/30 02:44:04;;;;;;;1.77;1.13;;;7.60;93.80;;;;;;6302279;28;20502;-79
2022/01/30 02:47:08;;;;;;;2.53;1.10;;;7.60;93.80;;;;;;6301613;28;20049;-80
2022/01/30 02:50:15;;;;;;;3.65;1.00;;;7.50;93.80;;;;;;6301760;28;20070;-80
2022/01/30 02:53:17;;;;;;;1.33;0.60;;;7.50;93.90;;;;;;6300942;28;20044;-80
2022/01/30 02:56:21;;;;;;;1.73;0.90;;;7.50;93.80;;;;;;6300736;28;20064;-79
2022/01/30 02:59:23;;;;;;;1.42;0.90;;;7.50;93.80;;;;;;6300856;28;20067;-79
2022/01/30 03:02:25;;;;;;;1.88;0.82;;;7.50;94.00;;;;;;6300922;28;20049;-79
2022/01/30 03:05:27;;;;;;;0.88;0.52;;;7.50;93.90;;;;;;6298985;28;20052;-78
2022/01/30 03:08:29;;;;;;;2.28;1.02;;;7.50;93.80;;;;;;6309840;28;20504;-78
2022/01/30 03:11:32;;;;;;;1.52;0.90;;;7.50;94.00;;;;;;6306445;28;20048;-77
2022/01/30 03:14:34;;;;;;;1.92;0.80;;;7.50;93.90;;;;;;6296003;28;20135;-79
2022/01/30 03:17:36;;;;;;;1.50;0.95;;;7.50;93.90;;;;;;6297089;28;20152;-79
2022/01/30 03:20:37;;;;;;;5.15;1.17;;;7.50;93.90;;;;;;6296872;28;20048;-79
2022/01/30 03:23:40;;;;;;;1.27;0.70;;;7.50;93.70;;;;;;6297002;28;20058;-78
2022/01/30 03:26:43;;;;;;;0.80;0.45;;;7.60;93.80;;;;;;6296498;28;20175;-78
2022/01/30 03:29:50;;;;;;;2.15;0.80;;;7.60;93.70;;;;;;6297100;28;20568;-78
2022/01/30 03:32:52;;;;;;;1.67;0.80;;;7.60;93.70;;;;;;6296855;28;20052;-79
2022/01/30 03:35:54;;;;;;;1.83;0.88;;;7.60;93.70;;;;;;6296598;28;20051;-78
2022/01/30 03:38:56;;;;;;;1.67;1.10;;;7.70;93.90;;;;;;6297068;28;20178;-79
2022/01/30 03:41:59;;;;;;;2.58;0.98;;;7.70;93.60;;;;;;6297519;28;20413;-79
2022/01/30 03:45:01;;;;;;;1.77;0.90;;;7.80;93.70;;;;;;6296362;28;20071;-79
2022/01/30 03:48:04;;;;;;;1.25;0.82;;;7.80;93.70;;;;;;6296979;28;22011;-79
2022/01/30 03:51:05;;;;;;;2.63;1.35;;;7.90;93.70;;;;;;6297218;28;20049;-79
2022/01/30 03:54:08;;;;;;;0.98;0.80;;;7.80;93.60;;;;;;6297549;28;20051;-78
2022/01/30 03:57:11;;;;;;;0.98;0.73;;;7.80;93.70;;;;;;6297207;28;20091;-78
2022/01/30 04:00:14;;;;;;;1.92;0.80;;;7.70;93.70;;;;;;6297283;28;20066;-78
2022/01/30 04:03:15;;;;;;;1.75;0.70;;;7.80;93.70;;;;;;6298125;28;20323;-79
2022/01/30 04:06:17;;;;;;;1.60;1.00;;;7.80;93.70;;;;;;6297702;28;20048;-79
2022/01/30 04:09:20;;;;;;;2.55;1.30;;;7.70;93.70;;;;;;6297803;28;20048;-78
2022/01/30 04:12:23;;;;;;;3.60;1.40;;;7.70;93.80;;;;;;6297226;28;20052;-80
2022/01/30 04:15:26;;;;;;;1.60;1.00;;;7.70;93.80;;;;;;6297899;28;20051;-79
2022/01/30 04:18:28;;;;;;;2.45;1.58;;;7.70;93.90;;;;;;6297891;28;20048;-78
2022/01/30 04:21:30;;;;;;;1.75;0.85;;;7.60;93.80;;;;;;6301080;28;20486;-79
2022/01/30 04:24:32;;;;;;;2.08;1.00;;;7.60;93.80;;;;;;6301687;28;20182;-79
2022/01/30 04:27:35;;;;;;;2.53;0.82;;;7.50;93.90;;;;;;6301644;28;20068;-79
2022/01/30 04:30:38;;;;;;;2.25;1.25;;;7.50;94.00;;;;;;6301684;28;20052;-77
2022/01/30 04:33:40;;;;;;;1.13;0.80;;;7.50;94.00;;;;;;6302147;28;20062;-78
2022/01/30 04:36:56;;;;;;;2.58;0.88;;;7.50;94.20;;;;;;6302428;28;20067;-79
2022/01/30 04:40:21;;;;;;;2.58;1.60;;;7.50;94.20;;;;;;6301893;28;20126;-78
2022/01/30 04:54:13;;;;;;;2.38;0.82;;;7.30;94.20;;;;;;6242715;28;20413;-78
2022/01/30 04:57:15;;;;;;;3.22;1.80;;;7.20;94.50;;;;;;6301300;28;20048;-78
2022/01/30 05:00:30;;;;;;;2.58;0.93;;;7.00;94.70;;;;;;6301895;28;20518;-78
2022/01/30 05:03:42;;;;;;;1.58;0.88;;;7.00;94.80;;;;;;6301239;28;20048;-78
2022/01/30 05:07:25;;;;;;;2.83;1.27;;;6.90;94.90;;;;;;6300767;28;20402;-79
2022/01/30 05:10:15;;;;;;;2.33;1.35;;;6.80;94.90;;;;;;6301564;28;20182;-80
2022/01/30 05:13:21;;;;;;;2.33;1.05;;;6.80;95.10;;;;;;6301902;28;20059;-79
2022/01/30 05:16:24;;;;;;;1.52;1.20;;;6.70;95.10;;;;;;6301258;28;20049;-80
2022/01/30 05:19:27;;;;;;;4.35;1.55;;;6.60;95.30;;;;;;6301019;28;20055;-79
2022/01/30 05:22:29;;;;;;;3.25;1.23;;;6.60;95.40;;;;;;6302299;28;20048;-78
2022/01/30 05:25:31;;;;;;;4.80;1.52;;;6.50;95.40;;;;;;6301815;28;20075;-78
2022/01/30 05:28:33;;;;;;;4.03;1.35;;;6.50;95.50;;;;;;6301071;28;20044;-79
2022/01/30 05:31:37;;;;;;;4.40;2.20;;;6.50;95.60;;;;;;6301172;28;20055;-80
2022/01/30 05:34:39;;;;;;;3.55;1.95;;;6.50;95.70;;;;;;6301284;28;20052;-79
2022/01/30 05:37:42;;;;;;;5.10;2.10;;;6.40;95.70;;;;;;6301477;28;20074;-79
2022/01/30 05:40:44;;;;;;;3.53;1.90;;;6.40;95.70;;;;;;6301176;28;20049;-80
2022/01/30 05:43:50;;;;;;;3.53;2.05;;;6.40;95.70;;;;;;6300880;28;20044;-80
2022/01/30 05:46:55;;;;;;;5.13;1.70;;;6.40;95.70;;;;;;6301210;28;20127;-79
2022/01/30 05:49:58;;;;;;;4.22;2.17;;;6.40;95.70;;;;;;6301568;28;20044;-80
2022/01/30 05:52:59;;;;;;;4.80;2.58;;;6.40;95.80;;;;;;6301362;28;20048;-79
2022/01/30 05:56:01;;;;;;;4.90;2.13;;;6.40;96.00;;;;;;6300558;28;20078;-78
2022/01/30 05:59:04;;;;;;;4.90;2.35;;;6.40;95.80;;;;;;6300629;28;20052;-79
2022/01/30 06:02:07;;;;;;;4.35;2.65;;;6.40;95.70;;;;;;6305847;28;20044;-79
2022/01/30 06:05:10;;;;;;;4.88;3.00;;;6.40;95.70;;;;;;6300622;28;20060;-82
2022/01/30 06:08:14;;;;;;;5.20;2.70;;;6.30;95.70;;;;;;6301824;28;20474;-80
2022/01/30 06:11:16;;;;;;;6.70;2.13;;;6.30;95.70;;;;;;6301124;28;20045;-81
2022/01/30 06:14:18;;;;;;;5.35;2.63;;;6.30;95.80;;;;;;6302259;28;20044;-81
2022/01/30 06:17:21;;;;;;;5.45;2.28;;;6.30;95.80;;;;;;6301212;28;20063;-81
2022/01/30 06:20:23;;;;;;;5.32;1.92;;;6.30;95.70;;;;;;6300774;28;20058;-81
2022/01/30 06:23:26;;;;;;;6.28;2.80;;;6.30;95.70;;;;;;6300458;28;20417;-81
2022/01/30 06:26:28;;;;;;;3.90;2.50;;;6.20;95.60;;;;;;6301361;28;20048;-80
2022/01/30 06:29:29;;;;;;;5.25;2.10;;;6.20;95.60;;;;;;6301292;28;20504;-81
2022/01/30 06:32:33;;;;;;;3.63;1.77;;;6.20;95.70;;;;;;6301263;28;20047;-79
2022/01/30 06:35:34;;;;;;;4.05;1.73;;;6.20;95.60;;;;;;6300507;28;20525;-78
2022/01/30 06:38:36;;;;;;;11.70;8.85;;;6.20;95.50;;;;;;6313027;28;20423;-79
2022/01/30 06:41:38;;;;;;;5.38;2.33;;;6.30;95.60;;;;;;6312898;28;20056;-80
2022/01/30 06:44:42;;;;;;;3.67;2.50;;;6.20;95.50;;;;;;6302639;28;20044;-79
2022/01/30 06:47:46;;;;;;;6.93;2.15;;;6.20;95.50;;;;;;6302545;28;20052;-79
2022/01/30 06:50:48;;;;;;;4.75;2.60;;;6.20;95.60;;;;;;6301938;28;20048;-80
2022/01/30 06:53:49;;;;;;;7.60;4.43;;;6.20;95.70;;;;;;6302041;28;20048;-80
2022/01/30 06:56:51;;;;;;;11.98;3.42;;;6.20;95.70;;;;;;6303312;28;20643;-77
2022/01/30 06:59:53;;;;;;;8.55;3.22;;;6.20;95.80;;;;;;6302071;28;20425;-80
2022/01/30 07:02:56;;;;;;;8.88;2.90;;;6.20;95.80;;;;;;6302774;28;20045;-80
2022/01/30 07:05:57;;;;;;;5.25;2.47;;;6.30;95.70;;;;;;6298144;28;20059;-79
2022/01/30 07:08:59;;;;;;;4.72;2.30;;;6.30;95.70;;;;;;6296692;28;20044;-78
2022/01/30 07:12:02;;;;;;;8.98;3.40;;;6.30;95.50;;;;;;6297113;28;20040;-77
2022/01/30 07:15:04;;;;;;;82.47;30.67;;;6.40;95.70;;;;;;6296990;28;20127;-78
2022/01/30 07:18:07;;;;;;;12.27;4.15;;;6.40;95.50;;;;;;6297432;28;20086;-78
2022/01/30 07:21:09;;;;;;;75.78;31.05;;;6.40;95.30;;;;;;6296768;28;20044;-78
2022/01/30 07:24:11;;;;;;;14.45;6.15;;;6.40;95.30;;;;;;6296211;28;20433;-78
2022/01/30 07:27:13;;;;;;;6.65;2.58;;;6.30;95.40;;;;;;6297552;28;20454;-78
2022/01/30 07:30:15;;;;;;;4.50;2.30;;;6.30;95.30;;;;;;6298167;28;20040;-78
2022/01/30 07:33:18;;;;;;;7.68;2.63;;;6.30;95.30;;;;;;6297879;28;20048;-78
2022/01/30 07:36:20;;;;;;;7.25;3.53;;;6.30;95.30;;;;;;6298241;28;20052;-77
2022/01/30 07:39:25;;;;;;;6.35;2.28;;;6.30;95.40;;;;;;6298511;28;20106;-78
2022/01/30 07:42:27;;;;;;;5.05;2.30;;;6.20;95.40;;;;;;6299002;28;20106;-77
2022/01/30 07:45:29;;;;;;;5.82;2.15;;;6.20;95.40;;;;;;6297402;28;20488;-77
2022/01/30 07:48:32;;;;;;;4.47;2.15;;;6.20;95.50;;;;;;6297248;28;20417;-78
2022/01/30 07:51:34;;;;;;;9.63;2.30;;;6.20;95.50;;;;;;6296428;28;20498;-78
2022/01/30 07:54:36;;;;;;;6.55;2.40;;;6.30;95.50;;;;;;6295974;28;20501;-78
2022/01/30 07:57:38;;;;;;;8.85;3.00;;;6.30;95.50;;;;;;6301616;28;20517;-78
2022/01/30 08:00:39;;;;;;;4.95;3.05;;;6.40;95.50;;;;;;6301005;28;20072;-78
2022/01/30 08:03:43;;;;;;;9.45;2.85;;;6.50;95.50;;;;;;6300963;28;20047;-78
2022/01/30 08:06:46;;;;;;;6.57;3.03;;;6.60;95.50;;;;;;6300612;28;20083;-78
2022/01/30 08:09:48;;;;;;;7.53;2.42;;;6.70;95.70;;;;;;6303280;28;20052;-78
2022/01/30 08:12:50;;;;;;;6.95;2.78;;;6.80;95.30;;;;;;6302107;28;20155;-78
2022/01/30 08:15:51;;;;;;;10.77;3.25;;;6.90;95.30;;;;;;6302241;28;20114;-77
2022/01/30 08:18:55;;;;;;;8.30;3.85;;;7.10;95.00;;;;;;6302981;28;20182;-77
2022/01/30 08:21:59;;;;;;;11.63;3.25;;;7.20;94.90;;;;;;6303975;28;20133;-79
2022/01/30 08:25:01;;;;;;;7.65;2.80;;;7.30;94.80;;;;;;6302084;28;20052;-78
2022/01/30 08:28:03;;;;;;;6.60;3.05;;;7.30;94.50;;;;;;6303370;28;20049;-78
2022/01/30 08:31:05;;;;;;;11.32;3.33;;;7.30;94.50;;;;;;6302501;28;20516;-78
2022/01/30 08:34:08;;;;;;;10.23;4.13;;;7.50;94.80;;;;;;6301915;28;20131;-78
2022/01/30 08:37:10;;;;;;;16.13;4.25;;;7.70;94.60;;;;;;6302594;28;20053;-78
2022/01/30 08:40:13;;;;;;;11.98;3.70;;;7.90;94.60;;;;;;6301982;28;20055;-78
2022/01/30 08:43:17;;;;;;;16.10;4.88;;;8.20;94.10;;;;;;6302618;28;20044;-78
2022/01/30 08:46:20;;;;;;;13.98;3.75;;;8.40;93.80;;;;;;6302594;28;20143;-77
2022/01/30 08:49:23;;;;;;;12.05;4.45;;;8.70;93.50;;;;;;6303560;28;20044;-79
2022/01/30 08:52:25;;;;;;;11.00;3.05;;;8.80;93.20;;;;;;6302070;28;20170;-77
2022/01/30 08:55:29;;;;;;;14.27;3.40;;;8.80;92.80;;;;;;6302816;28;20044;-77
2022/01/30 08:58:32;;;;;;;48.00;23.55;;;8.70;92.50;;;;;;6302464;28;20048;-78
2022/01/30 09:01:34;;;;;;;16.65;8.50;;;8.70;92.60;;;;;;6302926;28;20059;-78
2022/01/30 09:04:37;;;;;;;13.18;3.28;;;8.90;92.70;;;;;;6302331;28;20064;-79
2022/01/30 09:07:39;;;;;;;8.82;2.95;;;9.00;92.10;;;;;;6302072;28;20075;-78
2022/01/30 09:10:42;;;;;;;11.68;3.28;;;9.00;91.90;;;;;;6303614;28;20040;-78
2022/01/30 09:13:44;;;;;;;6.05;4.05;;;9.10;92.50;;;;;;6303976;28;20052;-78
2022/01/30 09:16:46;;;;;;;18.30;4.28;;;9.30;93.30;;;;;;6302857;28;20044;-78
2022/01/30 09:19:49;;;;;;;13.10;3.20;;;9.80;93.30;;;;;;6302123;28;20071;-78
2022/01/30 09:22:53;;;;;;;4.50;2.47;;;10.30;91.80;;;;;;6300428;28;20128;-77
2022/01/30 09:25:55;;;;;;;9.88;2.50;;;10.80;92.10;;;;;;6240001;28;20135;-79
2022/01/30 09:29:01;;;;;;;5.63;2.13;;;11.30;91.40;;;;;;6279367;28;20125;-79
2022/01/30 09:32:05;;;;;;;14.75;2.55;;;11.70;88.70;;;;;;6303371;28;20048;-78
2022/01/30 09:35:09;;;;;;;16.55;2.80;;;12.20;86.90;;;;;;6300307;28;20075;-79
2022/01/30 09:38:11;;;;;;;13.85;2.70;;;12.70;86.00;;;;;;6300772;28;20126;-79
2022/01/30 09:41:14;;;;;;;7.20;2.85;;;13.10;80.50;;;;;;6299792;28;20051;-79
2022/01/30 09:44:17;;;;;;;11.48;2.70;;;13.20;78.40;;;;;;6298803;28;20083;-81
2022/01/30 09:47:19;;;;;;;16.77;3.50;;;13.30;77.60;;;;;;6298901;28;20071;-78
2022/01/30 09:50:23;;;;;;;8.70;2.67;;;13.50;74.50;;;;;;6299494;28;20405;-78
2022/01/30 09:53:24;;;;;;;8.52;2.33;;;13.70;73.00;;;;;;6297157;28;20678;-79
2022/01/30 09:56:26;;;;;;;13.43;2.28;;;13.80;73.40;;;;;;6298048;28;20422;-80
2022/01/30 09:59:28;;;;;;;18.42;3.83;;;14.10;71.10;;;;;;6298934;28;20418;-80
2022/01/30 10:02:30;;;;;;;13.88;3.05;;;14.20;68.10;;;;;;6301020;28;20683;-79
2022/01/30 10:05:36;;;;;;;17.67;2.88;;;14.30;68.50;;;;;;6300934;28;20051;-80
2022/01/30 10:08:42;;;;;;;8.35;2.00;;;14.60;68.10;;;;;;6299503;28;20438;-78
2022/01/30 10:11:48;;;;;;;13.60;4.43;;;14.80;65.50;;;;;;6301478;28;20510;-79
2022/01/30 10:14:53;;;;;;;20.38;2.13;;;14.80;64.20;;;;;;6300499;28;20045;-79
2022/01/30 10:17:55;;;;;;;12.13;2.38;;;15.00;62.80;;;;;;6301278;28;20240;-79
2022/01/30 10:20:58;;;;;;;19.15;2.22;;;15.10;62.50;;;;;;6300625;28;20520;-79
2022/01/30 10:24:00;;;;;;;12.02;1.80;;;15.30;60.80;;;;;;6300349;28;20059;-79
2022/01/30 10:27:17;;;;;;;8.32;1.45;;;15.40;60.50;;;;;;6299845;28;20532;-80
2022/01/30 10:30:23;;;;;;;12.70;2.83;;;15.60;57.90;;;;;;6298337;28;20048;-80
2022/01/30 10:33:40;;;;;;;14.48;2.75;;;15.60;56.40;;;;;;6299551;28;20052;-79
2022/01/30 10:36:43;;;;;;;7.75;1.48;;;15.70;56.40;;;;;;6298909;28;20040;-81
2022/01/30 10:40:01;;;;;;;10.50;1.42;;;15.80;55.80;;;;;;6299206;28;20048;-80
2022/01/30 10:43:03;;;;;;;8.45;1.40;;;15.90;54.40;;;;;;6299257;28;20048;-79
2022/01/30 10:46:17;;;;;;;6.53;1.30;;;15.90;52.20;;;;;;6299220;28;20643;-81
2022/01/30 10:49:21;;;;;;;11.32;2.30;;;15.80;51.20;;;;;;6299745;28;20112;-79
2022/01/30 10:52:24;;;;;;;16.35;2.95;;;15.60;51.50;;;;;;6296870;28;20519;-79
2022/01/30 10:55:41;;;;;;;8.57;1.40;;;15.30;52.10;;;;;;6297926;28;20102;-82
2022/01/30 10:58:43;;;;;;;11.90;1.45;;;14.90;51.20;;;;;;6298714;28;20051;-82
2022/01/30 11:01:46;;;;;;;7.70;1.27;;;14.70;50.90;;;;;;6299481;28;20053;-81
2022/01/30 11:04:49;;;;;;;6.57;1.33;;;14.80;52.00;;;;;;6298244;28;20436;-79
2022/01/30 11:07:52;;;;;;;10.10;1.67;;;15.00;49.70;;;;;;6297993;28;20045;-78
2022/01/30 11:11:03;;;;;;;6.78;1.27;;;15.30;49.80;;;;;;6298220;28;20137;-80
2022/01/30 11:14:17;;;;;;;5.13;1.20;;;15.60;50.60;;;;;;6298757;28;20056;-79
2022/01/30 11:17:21;;;;;;;4.05;1.27;;;15.80;50.70;;;;;;6298439;28;20048;-78
2022/01/30 11:20:25;;;;;;;4.93;1.30;;;16.10;50.60;;;;;;6298177;28;20561;-78
2022/01/30 11:23:28;;;;;;;21.10;1.85;;;16.50;46.80;;;;;;6299626;28;20131;-79
2022/01/30 11:26:30;;;;;;;12.00;2.10;;;17.00;44.50;;;;;;6322156;28;20075;-79
2022/01/30 11:29:37;;;;;;;21.13;6.38;;;17.30;44.60;;;;;;6295484;28;20052;-79
2022/01/30 11:32:40;;;;;;;90.03;25.92;;;17.60;44.70;;;;;;6297147;28;20048;-79
2022/01/30 11:35:44;;;;;;;30.85;11.02;;;17.80;43.70;;;;;;6310403;28;20040;-81
2022/01/30 11:38:47;;;;;;;26.92;10.55;;;18.10;43.30;;;;;;6317280;28;20498;-80
2022/01/30 11:42:12;;;;;;;9.80;3.05;;;18.30;41.90;;;;;;6297662;28;20133;-79
2022/01/30 11:45:24;;;;;;;8.07;3.38;;;18.40;40.80;;;;;;6296920;28;20490;-80
2022/01/30 11:48:26;;;;;;;13.80;2.00;;;18.50;41.40;;;;;;6304422;28;20047;-80
2022/01/30 11:51:48;;;;;;;10.82;1.77;;;18.80;41.10;;;;;;6322479;28;20321;-79
2022/01/30 11:54:57;;;;;;;9.43;1.02;;;18.80;41.70;;;;;;6322180;28;20528;-79
2022/01/30 11:57:58;;;;;;;4.53;1.20;;;18.80;40.30;;;;;;6320005;28;20051;-79
2022/01/30 12:01:01;;;;;;;12.45;2.42;;;18.40;40.30;;;;;;6309655;28;20044;-78
2022/01/30 12:04:07;;;;;;;8.77;1.50;;;17.80;41.10;;;;;;6320602;28;20068;-78
2022/01/30 12:07:36;;;;;;;11.55;1.60;;;17.20;40.80;;;;;;6322089;28;20058;-80
2022/01/30 12:10:38;;;;;;;;;;;17.00;42.30;;;;;;6325554;28;20044;-78
2022/01/30 12:13:45;;;;;;;6.03;1.13;;;17.20;43.80;;;;;;6326233;28;20389;-79
2022/01/30 12:16:49;;;;;;;11.57;1.65;;;17.30;41.50;;;;;;6324268;28;20048;-80
2022/01/30 12:20:04;;;;;;;7.60;1.80;;;17.40;41.50;;;;;;6321680;28;20127;-79
2022/01/30 12:23:26;;;;;;;9.93;1.48;;;17.70;40.40;;;;;;6322485;28;20631;-79
2022/01/30 12:26:47;;;;;;;9.85;1.33;;;17.60;40.00;;;;;;6323185;28;20131;-79
2022/01/30 12:29:51;;;;;;;5.55;1.10;;;17.50;40.80;;;;;;6292031;28;20127;-80
2022/01/30 12:32:53;;;;;;;6.95;1.33;;;17.50;40.90;;;;;;6296090;28;20059;-78
2022/01/30 12:35:56;;;;;;;8.93;1.35;;;17.70;41.00;;;;;;6298245;28;20048;-79
2022/01/30 12:39:07;;;;;;;6.85;1.20;;;17.90;40.20;;;;;;6298821;28;20052;-80
2022/01/30 12:42:15;;;;;;;5.10;1.25;;;17.90;39.80;;;;;;6300460;28;20045;-79
2022/01/30 12:45:18;;;;;;;9.52;1.92;;;18.00;39.70;;;;;;6302253;28;20053;-78
2022/01/30 12:48:19;;;;;;;5.25;1.25;;;17.90;40.50;;;;;;6302545;28;20040;-78
2022/01/30 12:51:22;;;;;;;7.30;1.92;;;17.90;40.20;;;;;;6299014;28;20047;-78
2022/01/30 12:54:27;;;;;;;7.95;1.70;;;17.70;39.80;;;;;;6298358;28;20509;-79
2022/01/30 12:57:31;;;;;;;8.35;1.30;;;17.10;39.80;;;;;;6302215;28;20056;-82
2022/01/30 13:00:34;;;;;;;10.40;2.05;;;16.30;41.10;;;;;;6302294;28;20185;-78
2022/01/30 13:03:36;;;;;;;13.07;1.70;;;15.70;42.80;;;;;;6324869;22;20048;-77
2022/01/30 13:06:40;;;;;;;9.18;1.00;;;15.50;43.10;;;;;;6301281;28;20051;-78
2022/01/30 13:09:43;;;;;;;8.90;1.55;;;15.40;43.50;;;;;;6301586;28;20511;-79
2022/01/30 13:12:45;;;;;;;11.93;2.17;;;15.40;43.10;;;;;;6301922;28;20083;-78
2022/01/30 13:15:57;;;;;;;9.30;1.67;;;15.60;43.70;;;;;;6301080;28;20044;-77
2022/01/30 13:18:59;;;;;;;7.68;1.52;;;16.10;42.50;;;;;;6302470;28;20124;-78
2022/01/30 13:22:01;;;;;;;4.28;0.82;;;16.50;41.50;;;;;;6301970;28;20044;-82
2022/01/30 13:25:07;;;;;;;9.85;2.40;;;16.70;40.30;;;;;;6300612;28;20094;-78
2022/01/30 13:28:09;;;;;;;9.48;1.13;;;16.70;39.80;;;;;;6306334;28;20044;-78
2022/01/30 13:31:14;;;;;;;7.38;1.30;;;16.70;40.20;;;;;;6311563;28;20040;-81
2022/01/30 13:34:19;;;;;;;8.70;1.60;;;16.90;40.00;;;;;;6277644;28;20061;-83
2022/01/30 13:37:22;;;;;;;7.63;1.85;;;17.00;40.10;;;;;;6277282;28;20045;-80
2022/01/30 13:40:38;;;;;;;5.25;1.45;;;17.20;39.90;;;;;;6277374;28;20045;-80
2022/01/30 13:43:40;;;;;;;10.43;1.80;;;17.40;39.70;;;;;;6277338;28;20045;-80
2022/01/30 13:46:57;;;;;;;10.90;1.77;;;17.50;38.90;;;;;;6275857;28;20477;-80
2022/01/30 13:49:59;;;;;;;9.48;1.58;;;17.60;38.90;;;;;;6277810;28;20114;-80
2022/01/30 13:53:03;;;;;;;9.50;3.05;;;17.60;38.30;;;;;;6276129;28;20047;-80
2022/01/30 13:56:09;;;;;;;4.95;1.17;;;17.60;38.30;;;;;;6276350;28;20041;-79
2022/01/30 13:59:10;;;;;;;6.80;1.55;;;17.40;38.20;;;;;;6306819;28;20055;-79
2022/01/30 14:02:18;;;;;;;8.15;1.27;;;17.30;38.40;;;;;;6324848;28;20055;-78
2022/01/30 14:05:25;;;;;;;9.38;1.83;;;17.20;38.40;;;;;;6326344;28;20412;-79
2022/01/30 14:08:27;;;;;;;3.70;1.13;;;17.00;39.10;;;;;;6325805;28;20408;-79
2022/01/30 14:11:32;;;;;;;6.72;1.20;;;17.10;38.70;;;;;;6325768;28;20116;-79
2022/01/30 14:14:37;;;;;;;6.85;1.00;;;17.10;38.30;;;;;;6325363;28;20520;-81
2022/01/30 14:17:42;;;;;;;6.43;1.27;;;17.00;38.00;;;;;;6325993;28;20047;-81
2022/01/30 14:20:46;;;;;;;7.32;1.40;;;16.90;38.10;;;;;;6325278;28;20409;-81
2022/01/30 14:23:48;;;;;;;6.15;1.58;;;16.70;38.20;;;;;;6324883;28;20048;-82
2022/01/30 14:30:18;;;;;;;8.77;1.52;;;16.60;40.60;;;;;;6321056;27;20423;-80
2022/01/30 14:33:20;;;;;;;9.60;1.70;;;16.70;38.60;;;;;;6295140;28;20052;-79
2022/01/30 14:36:24;;;;;;;11.48;1.48;;;16.70;38.90;;;;;;6295507;28;20549;-79
2022/01/30 14:39:27;;;;;;;10.02;1.80;;;16.40;39.20;;;;;;6295336;28;20040;-78
2022/01/30 14:42:28;;;;;;;13.13;2.58;;;16.00;40.10;;;;;;6296250;28;20053;-80
2022/01/30 14:45:32;;;;;;;15.88;2.45;;;15.70;41.30;;;;;;6295131;28;20418;-80
2022/01/30 14:48:34;;;;;;;12.93;2.60;;;15.50;42.00;;;;;;6295027;28;20045;-78
2022/01/30 14:51:35;;;;;;;8.55;2.00;;;15.40;42.10;;;;;;6295688;28;20045;-80
2022/01/30 14:54:37;;;;;;;11.35;1.33;;;15.40;42.10;;;;;;6295019;28;20063;-80
2022/01/30 14:57:39;;;;;;;11.40;2.13;;;15.40;41.60;;;;;;6293914;28;20532;-80
2022/01/30 15:00:42;;;;;;;9.60;1.58;;;15.40;41.70;;;;;;6242618;28;20056;-79
2022/01/30 15:03:44;;;;;;;9.07;1.23;;;15.40;41.70;;;;;;6269695;28;20055;-79
2022/01/30 15:06:46;;;;;;;7.72;1.45;;;15.30;41.50;;;;;;6274531;28;20048;-78
2022/01/30 15:09:47;;;;;;;6.82;1.38;;;15.30;42.50;;;;;;6273419;28;20096;-80
2022/01/30 15:12:49;;;;;;;5.95;1.63;;;15.10;41.70;;;;;;6272870;28;20124;-81
2022/01/30 15:15:53;;;;;;;10.18;2.75;;;14.90;42.30;;;;;;6273749;28;20041;-81
2022/01/30 15:18:55;;;;;;;13.98;2.40;;;14.60;42.50;;;;;;6272834;28;20049;-82
2022/01/30 15:21:57;;;;;;;8.13;1.65;;;14.20;43.10;;;;;;6273868;28;20049;-80
2022/01/30 15:25:00;;;;;;;13.77;1.75;;;13.90;44.00;;;;;;6270148;28;20055;-81
2022/01/30 15:28:01;;;;;;;14.35;3.65;;;13.70;44.70;;;;;;6269842;28;20498;-80
2022/01/30 15:31:05;;;;;;;15.85;3.17;;;13.60;45.20;;;;;;6270443;28;20045;-80
2022/01/30 15:34:07;;;;;;;9.50;2.28;;;13.40;45.30;;;;;;6270523;28;20060;-81
2022/01/30 15:37:09;;;;;;;11.77;2.15;;;13.20;45.80;;;;;;6269844;28;20053;-81
2022/01/30 15:40:12;;;;;;;8.82;1.83;;;13.00;46.30;;;;;;6246918;28;20042;-79
2022/01/30 15:43:14;;;;;;;7.15;1.50;;;12.70;46.80;;;;;;6228786;28;20046;-80
2022/01/30 15:49:37;;;;;;;8.05;1.52;;;12.30;48.10;;;;;;6228910;28;20133;-80
2022/01/30 15:52:39;;;;;;;9.52;1.95;;;12.10;48.60;;;;;;6226492;28;20052;-80
2022/01/30 15:55:41;;;;;;;19.02;2.05;;;11.80;49.20;;;;;;6228736;28;20042;-80
2022/01/30 15:58:43;;;;;;;8.68;1.80;;;11.60;49.80;;;;;;6228392;28;20046;-81
2022/01/30 16:01:46;;;;;;;12.07;2.45;;;11.30;50.30;;;;;;6228735;28;20135;-80
2022/01/30 16:04:53;;;;;;;12.40;2.38;;;11.10;51.00;;;;;;6227910;28;20141;-80
2022/01/30 16:07:55;;;;;;;10.30;2.28;;;10.80;51.70;;;;;;6227829;28;20050;-80
2022/01/30 16:11:02;;;;;;;10.32;2.33;;;10.50;52.60;;;;;;6228434;28;20116;-80
2022/01/30 16:17:25;;;;;;;13.80;5.25;;;10.00;54.70;;;;;;6227142;28;20053;-82
2022/01/30 16:20:27;;;;;;;9.77;2.35;;;9.70;54.90;;;;;;6232200;28;20109;-83
2022/01/30 16:27:40;;;;;;;10.27;2.55;;;9.30;56.90;;;;;;6230258;28;20096;-82
2022/01/30 16:30:42;;;;;;;10.80;2.92;;;9.00;59.00;;;;;;6220785;28;20136;-85
2022/01/30 16:33:48;;;;;;;13.80;2.83;;;9.00;59.20;;;;;;6223129;28;20073;-86
2022/01/30 16:36:57;;;;;;;8.90;2.03;;;8.90;59.00;;;;;;6229822;28;20538;-83
2022/01/30 16:39:59;;;;;;;9.23;2.83;;;8.60;59.60;;;;;;6228152;28;20045;-83
2022/01/30 16:43:10;;;;;;;14.18;2.42;;;8.50;60.10;;;;;;6230632;28;20046;-84
2022/01/30 16:46:31;;;;;;;10.30;1.77;;;8.40;61.80;;;;;;6227001;28;20125;-82